Terminal Aerodrome Forecast
Issued by NWS

Home | Current Version | Previous Version | Text Only | Print | Product List | Glossary On
Versions: 1 2 3 4 5 6 7 8 9 10 11 12 13 14 15 16 17 18 19 20 21 22 23 24 25 26 27 28 29 30 31 32 33
000
FTUS41 KOKX 261519 AAA
TAFTEB
TAF AMD
KTEB 261519Z 2615/2712 01009KT 1 1/2SM -SN BR OVC005
     FM261700 01012G20KT 1SM -SN OVC004
     FM262000 36018G25KT 1SM -SN OVC004
     FM270200 33017G25KT 6SM -SN OVC020
     FM270700 31008KT P6SM BKN030=

USA.gov is the U.S. government's official web portal to all federal, state and local government web resources and services.